Charleston Air Force Base-International Airport
KCHS : now visible

Airfield :











YOU CAN JOIN US ON...

 
LOGIN :

Register | Disclaimer

   EN    FR    IT 

 









Legend :    VFR   Marginal VFR   IFR   Intensive IFR   Very Intensive IFR
Visi :
Ceiling :
>= 8 km
>= 3000ft
5 to 8 km
1000 to 3000 ft
1500m to 5 km
500 to 1000 ft
800 to 1500m
200 to 500 ft
< 800m
< 200 ft
Symbols :   Thunderstorms  Fog  Heavy snow  Heavy precipitations  Wind > 20 kt







- Airport Elevation : 46 ft
- IATA code : CHS


KCHS - Charleston Air Force Base-International

CURRENT METAR :
  • 260456Z 02006KT 10SM FEW030 21/16 A3005 RMK AO2 SLP173 T02060156 402780200

EXPIRED METARs :
  • 260356Z 02007KT 10SM SCT025 21/16 A3007 RMK AO2 SLP181 T02110161
  • 260256Z 02009KT 10SM SCT025 21/17 A3007 RMK AO2 SLP180 60000 T02110172 50010
  • 260233Z 03012KT 10SM SCT025 22/18 A3005 RMK AO2 T02170178

TAF COR TAF KCHS
Valid from the 26 at 00:00 until the 27 at 00:00 UTC


252336Z 2600/2624 03008KT P6SM BKN022 OVC035
TEMPO 2602/2606 SCT025 OVC035
FM261700 06007KT P6SM SCT025 BKN050
FM262000 08008KT P6SM SCT030 BKN080
No reported NOTAMs for that airfield.



MET'MAP, your aeronautical weather chart ! - Copyright ORBIFLY December 2007 - Disclaimer

ORBIFLY MET'MAP TEAM :

Programming & Development : Alexandra Zaïnal
Concept & Development : Baudouin d'Aumeries
Co-Development & Prog : Marc-Olivier Méhu
Technical & hardware support : Manuel Goepfert

Contact : metmap@orbifly.com




SOURCES & CREDITS :

   NOAA       Earth
Advisory